Time;durP1;ratioP1;P1;durP2;ratioP2;P2;SDS_P1;SDS_P2;PMS_P1;PMS_P2;Temp;Humidity;BMP_temperature;BMP_pressure;BME280_temperature;BME280_humidity;BME280_pressure;Samples;Min_cycle;Max_cycle;Signal;HPM_P1;HPM_P2
2022/09/27 00:00:14;;;;;;;4.88;0.77;;;;;;;18.23;49.89;99497.66;5049006;28;20054;-65
2022/09/27 00:02:40;;;;;;;3.95;0.85;;;;;;;18.25;51.28;99497.47;5048599;28;20029;-65
2022/09/27 00:05:05;;;;;;;0.75;0.40;;;;;;;18.23;51.31;99488.72;5048516;28;20029;-65
2022/09/27 00:07:31;;;;;;;2.80;0.63;;;;;;;18.22;51.43;99492.44;5066013;28;20044;-65
2022/09/27 00:09:56;;;;;;;0.82;0.60;;;;;;;18.25;50.81;99502.88;5065630;28;20025;-65
2022/09/27 00:12:22;;;;;;;1.90;0.75;;;;;;;18.23;50.57;99499.56;5048831;28;20416;-65
2022/09/27 00:14:47;;;;;;;1.52;0.63;;;;;;;18.25;50.52;99508.31;5050225;28;20028;-65
2022/09/27 00:17:12;;;;;;;2.13;0.52;;;;;;;18.26;51.30;99507.22;5067314;28;20024;-65
2022/09/27 00:19:38;;;;;;;0.60;0.60;;;;;;;18.25;50.57;99513.72;5066214;28;20078;-65
2022/09/27 00:22:03;;;;;;;2.28;0.70;;;;;;;18.24;50.92;99512.03;5049073;28;20086;-65
2022/09/27 00:24:30;;;;;;;7.18;0.80;;;;;;;18.25;51.02;99513.72;5065916;28;20093;-65
2022/09/27 00:26:55;;;;;;;1.85;0.55;;;;;;;18.23;50.98;99510.41;5066182;28;20020;-65
2022/09/27 00:29:21;;;;;;;6.90;0.70;;;;;;;18.25;50.25;99513.72;5049692;28;20534;-65
2022/09/27 00:31:46;;;;;;;7.65;0.50;;;;;;;18.27;50.63;99509.75;5066822;28;20017;-65
2022/09/27 00:34:21;;;;;;;3.53;0.70;;;;;;;18.29;50.94;99509.53;5066221;28;20032;-65
2022/09/27 00:36:47;;;;;;;4.10;1.08;;;;;;;18.29;50.85;99509.53;5066990;28;20020;-65
2022/09/27 00:39:14;;;;;;;5.85;0.70;;;;;;;18.28;51.09;99507.88;5066878;28;20031;-65
2022/09/27 00:41:40;;;;;;;1.90;0.40;;;;;;;18.29;50.42;99509.53;5066481;28;20032;-65
2022/09/27 00:44:23;;;;;;;0.93;0.55;;;;;;;18.28;51.18;99516.00;5066454;28;20044;-65
2022/09/27 00:46:58;;;;;;;3.22;1.17;;;;;;;18.26;51.35;99512.66;5084595;28;20020;-65
2022/09/27 00:49:40;;;;;;;4.28;0.63;;;;;;;18.27;50.11;99517.03;5049754;28;20431;-65
2022/09/27 00:52:09;;;;;;;2.47;0.40;;;;;;;18.27;51.24;99522.47;5050194;28;20444;-65
2022/09/27 00:54:35;;;;;;;3.17;0.60;;;;;;;18.24;50.80;99523.72;5049797;28;20366;-65
2022/09/27 00:57:02;;;;;;;8.27;0.50;;;;;;;18.25;50.84;99524.56;5035583;28;20055;-65
2022/09/27 00:59:32;;;;;;;2.58;0.85;;;;;;;18.19;50.49;99520.81;5051641;28;20032;-65
2022/09/27 01:01:58;;;;;;;0.82;0.50;;;;;;;18.19;50.74;99528.13;5050093;28;20123;-65
2022/09/27 01:04:26;;;;;;;0.40;0.40;;;;;;;18.12;51.39;99532.72;5070301;28;20539;-64
2022/09/27 01:06:51;;;;;;;4.18;0.70;;;;;;;18.02;51.17;99536.69;5058448;28;20592;-64
2022/09/27 01:09:17;;;;;;;0.40;0.40;;;;;;;17.90;51.51;99530.19;5057741;28;20060;-64
2022/09/27 01:12:01;;;;;;;2.70;0.57;;;;;;;17.77;50.93;99532.91;5040901;28;20048;-64
2022/09/27 01:14:51;;;;;;;1.23;0.50;;;;;;;17.59;51.35;99551.63;5075220;28;20385;-64
2022/09/27 01:17:38;;;;;;;1.17;0.57;;;;;;;17.48;51.79;99549.50;5057669;28;20027;-64
2022/09/27 01:20:25;;;;;;;4.35;1.13;;;;;;;17.40;52.18;99541.56;5057109;28;20024;-63
2022/09/27 01:23:04;;;;;;;2.58;0.20;;;;;;;17.30;52.15;99551.94;5074522;28;20375;-63
2022/09/27 01:25:45;;;;;;;4.28;0.30;;;;;;;17.32;52.41;99561.53;5056470;28;20477;-63
2022/09/27 01:28:27;;;;;;;2.08;0.30;;;;;;;17.31;51.51;99549.03;5074424;28;20143;-64
2022/09/27 01:30:58;;;;;;;0.30;0.30;;;;;;;17.32;51.95;99547.16;5039262;28;20048;-63
2022/09/27 01:33:30;;;;;;;0.43;0.35;;;;;;;17.31;51.96;99553.59;5057064;28;20409;-63
2022/09/27 01:36:04;;;;;;;1.63;0.38;;;;;;;17.28;51.80;99572.97;5039911;28;20553;-63
2022/09/27 01:38:39;;;;;;;3.13;0.40;;;;;;;17.23;52.41;99581.69;5056309;28;20031;-64
2022/09/27 01:41:26;;;;;;;1.95;0.30;;;;;;;17.23;52.33;99578.16;5074299;28;20432;-62
2022/09/27 01:44:05;;;;;;;1.65;0.30;;;;;;;17.18;52.43;99580.63;5056523;28;20039;-63
2022/09/27 01:46:38;;;;;;;2.08;0.30;;;;;;;17.18;51.90;99577.91;5040066;28;20485;-63
2022/09/27 01:49:09;;;;;;;3.45;0.40;;;;;;;17.21;51.62;99570.25;5056141;28;20044;-63
2022/09/27 01:51:40;;;;;;;4.70;0.70;;;;;;;17.21;52.08;99574.81;5056285;28;20396;-63
2022/09/27 01:54:06;;;;;;;1.02;0.40;;;;;;;17.22;52.25;99568.38;5056145;28;20393;-63
2022/09/27 01:56:40;;;;;;;1.00;0.60;;;;;;;17.24;52.08;99552.75;5056136;28;20104;-63
2022/09/27 01:59:16;;;;;;;0.30;0.30;;;;;;;17.22;51.91;99549.44;5055921;28;20024;-62
2022/09/27 02:01:43;;;;;;;2.38;0.50;;;;;;;17.23;51.44;99551.09;5039384;28;20024;-63
2022/09/27 02:04:12;;;;;;;2.40;0.45;;;;;;;17.21;52.24;99545.88;5057352;28;20390;-63
2022/09/27 02:06:40;;;;;;;0.30;0.30;;;;;;;17.23;51.55;99551.09;5058795;28;20488;-63
2022/09/27 02:09:12;;;;;;;1.00;0.43;;;;;;;17.25;52.29;99554.44;5059045;28;20024;-63
2022/09/27 02:11:40;;;;;;;2.90;0.30;;;;;;;17.29;51.75;99572.75;5043201;28;20032;-63
2022/09/27 02:14:33;;;;;;;4.55;0.50;;;;;;;17.33;51.83;99573.19;5060581;28;20020;-63
2022/09/27 02:17:07;;;;;;;1.38;0.88;;;;;;;17.32;52.00;99571.53;5060832;28;20052;-63
2022/09/27 02:20:14;;;;;;;2.88;0.40;;;;;;;17.34;51.60;99577.56;5060716;28;20020;-63
2022/09/27 02:23:11;;;;;;;7.07;0.60;;;;;;;17.34;51.28;99575.69;4961337;28;20046;-63
2022/09/27 02:25:50;;;;;;;0.85;0.40;;;;;;;17.33;51.81;99573.19;4974171;28;20045;-63
2022/09/27 02:28:33;;;;;;;3.63;0.40;;;;;;;17.33;51.68;99581.31;4961893;28;20483;-63
2022/09/27 02:30:59;;;;;;;1.13;0.30;;;;;;;17.31;50.96;99573.38;4978465;28;20026;-63
2022/09/27 02:33:32;;;;;;;1.35;0.30;;;;;;;17.33;51.75;99579.47;4946569;28;20085;-63
2022/09/27 02:35:57;;;;;;;0.17;0.17;;;;;;;17.38;51.80;99576.13;4947121;28;20026;-63
2022/09/27 02:38:22;;;;;;;1.13;0.40;;;;;;;17.37;50.93;99569.03;4947335;28;20078;-63
2022/09/27 02:40:48;;;;;;;2.42;0.38;;;;;;;17.40;51.70;99574.88;4947732;28;20042;-63
2022/09/27 02:43:16;;;;;;;1.75;0.43;;;;;;;17.41;52.18;99575.72;4950981;28;20058;-63
2022/09/27 02:45:53;;;;;;;3.65;0.45;;;;;;;17.44;50.87;99587.00;4968966;28;20045;-63
2022/09/27 02:48:50;;;;;;;2.03;0.52;;;;;;;17.45;51.79;99587.78;4985039;28;20049;-63
2022/09/27 02:51:40;;;;;;;0.40;0.35;;;;;;;17.44;51.37;99581.56;4981799;28;20042;-64
2022/09/27 02:54:10;;;;;;;4.63;0.30;;;;;;;17.47;51.02;99585.75;5063748;28;20413;-65
2022/09/27 02:57:01;;;;;;;0.77;0.52;;;;;;;17.48;51.08;99590.94;5052668;28;20059;-65
2022/09/27 02:59:51;;;;;;;1.08;0.60;;;;;;;17.47;50.84;99596.56;5086754;28;20035;-65
2022/09/27 03:02:25;;;;;;;4.18;0.73;;;;;;;17.45;51.47;99596.75;5087145;28;20111;-65
2022/09/27 03:04:54;;;;;;;8.07;0.80;;;;;;;17.43;51.23;99604.25;5069545;28;20028;-63
2022/09/27 03:07:21;;;;;;;1.40;0.45;;;;;;;17.45;51.65;99604.88;5070490;28;20389;-64
2022/09/27 03:09:48;;;;;;;1.58;0.40;;;;;;;17.44;50.87;99600.53;5069343;28;20092;-64
2022/09/27 03:12:21;;;;;;;2.20;0.40;;;;;;;17.44;51.28;99602.41;5053286;28;20031;-64
2022/09/27 03:14:47;;;;;;;0.35;0.08;;;;;;;17.41;50.99;99600.09;5071013;28;20080;-64
2022/09/27 03:17:12;;;;;;;0.60;0.30;;;;;;;17.38;51.18;99601.34;5071294;28;20044;-64
2022/09/27 03:19:38;;;;;;;0.10;0.10;;;;;;;17.36;51.64;99592.56;5074133;28;20031;-64
2022/09/27 03:22:03;;;;;;;2.35;0.35;;;;;;;17.34;51.46;99589.22;5072318;28;20524;-63
2022/09/27 03:24:28;;;;;;;0.10;0.10;;;;;;;17.37;51.19;99587.97;5056253;28;20038;-63
2022/09/27 03:26:54;;;;;;;1.27;0.32;;;;;;;17.34;50.76;99581.09;5054336;28;20032;-63
2022/09/27 03:29:19;;;;;;;1.23;0.40;;;;;;;17.32;50.58;99577.78;5037038;28;20025;-64
2022/09/27 03:31:45;;;;;;;2.08;0.28;;;;;;;17.29;50.62;99594.41;5087600;28;20078;-64
2022/09/27 03:34:10;;;;;;;0.20;0.20;;;;;;;17.31;51.20;99575.25;5036641;28;20044;-64
2022/09/27 03:36:35;;;;;;;1.27;0.45;;;;;;;17.30;50.81;99584.44;5053043;28;20032;-64
2022/09/27 03:39:01;;;;;;;0.20;0.20;;;;;;;17.28;51.02;99592.75;5069790;28;20474;-64
2022/09/27 03:41:26;;;;;;;1.58;0.22;;;;;;;17.29;51.04;99593.59;5052688;28;20051;-64
2022/09/27 03:43:51;;;;;;;3.20;0.95;;;;;;;17.29;51.41;99591.72;5052952;28;20028;-64
2022/09/27 03:46:17;;;;;;;2.45;0.45;;;;;;;17.30;50.70;99576.31;5069668;28;20032;-64
2022/09/27 03:48:42;;;;;;;2.72;0.57;;;;;;;17.29;50.25;99566.50;5052707;28;20025;-64
2022/09/27 03:51:11;;;;;;;1.20;0.20;;;;;;;17.28;50.96;99570.28;5069858;28;20058;-64
2022/09/27 03:53:36;;;;;;;2.28;0.22;;;;;;;17.31;50.40;99572.56;5052714;28;20024;-64
2022/09/27 03:56:01;;;;;;;3.17;0.30;;;;;;;17.29;51.04;99566.50;5053181;28;20094;-64
2022/09/27 03:58:27;;;;;;;4.28;0.32;;;;;;;17.28;49.63;99575.69;5035363;28;20047;-64
2022/09/27 04:00:52;;;;;;;1.95;0.50;;;;;;;17.21;50.76;99562.13;5068590;28;20405;-64
2022/09/27 04:03:18;;;;;;;5.22;0.57;;;;;;;17.21;51.25;99548.59;5051401;28;20032;-64
2022/09/27 04:05:44;;;;;;;1.05;0.30;;;;;;;17.22;50.85;99555.69;5068832;28;20051;-64
2022/09/27 04:08:10;;;;;;;1.02;0.38;;;;;;;17.22;50.70;99565.66;5086746;28;20056;-64
2022/09/27 04:10:36;;;;;;;0.57;0.30;;;;;;;17.24;50.77;99569.00;5068119;28;20115;-64
2022/09/27 04:13:01;;;;;;;0.40;0.35;;;;;;;17.23;50.72;99564.63;5051635;28;20055;-64
2022/09/27 04:15:27;;;;;;;0.65;0.30;;;;;;;17.19;50.21;99564.22;5052414;28;20477;-64
2022/09/27 04:17:52;;;;;;;2.35;0.50;;;;;;;17.22;50.27;99560.25;5051872;28;20063;-64
2022/09/27 04:20:17;;;;;;;1.85;0.40;;;;;;;17.25;49.52;99586.91;5068447;28;20056;-64
2022/09/27 04:22:44;;;;;;;1.73;0.43;;;;;;;17.24;50.69;99590.66;5051642;28;20039;-64
2022/09/27 04:25:10;;;;;;;1.27;0.35;;;;;;;17.26;50.38;99588.56;5051540;28;20059;-64
2022/09/27 04:27:35;;;;;;;0.65;0.30;;;;;;;17.22;50.43;99587.31;5067949;28;20024;-64
2022/09/27 04:30:01;;;;;;;2.90;0.50;;;;;;;17.25;50.56;99600.44;5084739;28;20040;-64
2022/09/27 04:32:26;;;;;;;3.92;0.52;;;;;;;17.24;50.27;99604.19;5067885;28;20028;-64
2022/09/27 04:37:37;;;;;;;0.70;0.40;;;;;;;17.24;49.81;99604.19;5068704;28;20067;-64
2022/09/27 04:40:03;;;;;;;0.60;0.60;;;;;;;17.26;50.20;99600.25;5049406;28;20486;-64
2022/09/27 04:42:28;;;;;;;1.20;0.40;;;;;;;17.25;50.27;99592.34;5034054;28;20033;-64
2022/09/27 04:44:53;;;;;;;1.17;0.70;;;;;;;17.24;50.72;99596.06;5067497;28;20036;-64
2022/09/27 04:47:20;;;;;;;3.85;0.40;;;;;;;17.19;49.83;99593.97;5067616;28;20473;-64
2022/09/27 04:49:46;;;;;;;1.48;0.60;;;;;;;17.21;50.94;99596.47;5050445;28;20046;-64
2022/09/27 04:52:11;;;;;;;3.08;0.80;;;;;;;17.20;50.77;99603.75;5050213;28;20082;-64
2022/09/27 04:54:37;;;;;;;0.52;0.50;;;;;;;17.21;50.65;99604.59;5067130;28;20025;-64
2022/09/27 04:57:02;;;;;;;1.70;0.60;;;;;;;17.19;50.92;99602.09;5034198;28;20024;-64
2022/09/27 04:59:28;;;;;;;0.93;0.38;;;;;;;17.20;50.94;99611.03;5085269;28;20035;-64
2022/09/27 05:01:53;;;;;;;1.42;0.50;;;;;;;17.19;50.51;99615.63;5066314;28;20065;-64
2022/09/27 05:04:19;;;;;;;1.58;0.30;;;;;;;17.20;51.33;99621.84;5049607;28;20056;-64
2022/09/27 05:06:44;;;;;;;4.05;0.80;;;;;;;17.18;50.34;99621.22;5084344;28;20029;-64
2022/09/27 05:09:09;;;;;;;0.60;0.20;;;;;;;17.17;50.77;99623.09;5051438;28;20032;-64
2022/09/27 05:11:36;;;;;;;0.50;0.30;;;;;;;17.18;50.85;99624.78;5050957;28;20035;-64
2022/09/27 05:14:03;;;;;;;5.05;0.75;;;;;;;17.19;49.70;99631.03;5050099;28;20396;-64
2022/09/27 05:16:28;;;;;;;2.25;0.20;;;;;;;17.18;50.55;99630.19;5049225;28;20051;-64
2022/09/27 05:18:54;;;;;;;2.17;0.40;;;;;;;17.24;50.34;99633.97;5050340;28;20024;-64
2022/09/27 05:21:19;;;;;;;1.40;0.35;;;;;;;17.23;51.15;99633.13;5085347;28;20053;-64
2022/09/27 05:23:44;;;;;;;1.33;0.28;;;;;;;17.24;50.97;99647.50;5052304;28;20033;-64
2022/09/27 05:26:10;;;;;;;0.95;0.25;;;;;;;17.20;49.96;99638.09;5071121;28;20047;-64
2022/09/27 05:28:36;;;;;;;0.52;0.43;;;;;;;17.20;50.40;99647.03;5088176;28;20024;-64
2022/09/27 05:31:01;;;;;;;0.90;0.20;;;;;;;17.16;50.66;99645.78;5053324;28;20036;-64
2022/09/27 05:33:27;;;;;;;1.67;0.25;;;;;;;17.15;50.72;99644.13;5069221;28;20039;-64
2022/09/27 05:35:56;;;;;;;0.47;0.20;;;;;;;17.19;50.22;99647.25;5035303;28;20035;-64
2022/09/27 05:38:22;;;;;;;0.90;0.20;;;;;;;17.18;49.94;99645.59;5052397;28;20024;-63
2022/09/27 05:40:49;;;;;;;0.80;0.10;;;;;;;17.18;50.56;99656.41;5052679;28;20024;-64
2022/09/27 05:43:16;;;;;;;4.22;0.38;;;;;;;17.19;50.42;99655.38;5068636;28;20097;-64
2022/09/27 05:45:42;;;;;;;0.15;0.15;;;;;;;17.19;50.31;99660.78;5051408;28;20133;-64
2022/09/27 05:48:08;;;;;;;2.22;0.30;;;;;;;17.19;49.09;99655.38;5067793;28;20115;-64
2022/09/27 05:50:34;;;;;;;3.13;0.80;;;;;;;17.20;49.21;99654.31;5052878;28;20020;-64
2022/09/27 05:52:59;;;;;;;2.50;0.40;;;;;;;17.21;50.31;99656.00;5055135;28;20040;-64
2022/09/27 05:55:24;;;;;;;0.65;0.28;;;;;;;17.20;50.22;99654.31;5073368;28;20055;-64
2022/09/27 05:57:54;;;;;;;2.38;0.40;;;;;;;17.20;49.14;99665.16;5056928;28;20111;-64
2022/09/27 06:00:19;;;;;;;3.63;0.28;;;;;;;17.19;50.23;99658.09;5090063;28;20105;-64
2022/09/27 06:02:52;;;;;;;0.20;0.20;;;;;;;17.19;50.84;99655.38;5090662;28;20029;-64
2022/09/27 06:05:18;;;;;;;0.30;0.30;;;;;;;17.18;50.09;99672.66;5054481;28;20028;-63
2022/09/27 06:07:44;;;;;;;1.27;0.20;;;;;;;17.20;50.28;99666.00;5070891;28;20052;-64
2022/09/27 06:10:10;;;;;;;2.75;0.40;;;;;;;17.21;49.94;99673.09;5069154;28;20032;-64
2022/09/27 06:12:35;;;;;;;0.90;0.25;;;;;;;17.26;48.94;99675.19;5068604;28;20030;-64
2022/09/27 06:15:00;;;;;;;0.77;0.22;;;;;;;17.29;49.26;99674.78;5067889;28;20044;-64
2022/09/27 06:17:26;;;;;;;0.77;0.13;;;;;;;17.34;49.77;99669.59;5050975;28;20060;-64
2022/09/27 06:19:51;;;;;;;0.32;0.20;;;;;;;17.37;49.25;99664.63;5066750;28;20029;-64
2022/09/27 06:22:16;;;;;;;0.63;0.30;;;;;;;17.45;49.06;99660.91;5034104;28;20071;-63
2022/09/27 06:24:42;;;;;;;1.52;0.17;;;;;;;17.48;49.73;99668.63;5084627;28;20028;-64
2022/09/27 06:27:07;;;;;;;0.45;0.40;;;;;;;17.48;49.00;99668.63;5049898;28;20090;-64
2022/09/27 06:29:34;;;;;;;0.75;0.20;;;;;;;17.49;49.19;99675.72;5033143;28;20507;-63
2022/09/27 06:31:59;;;;;;;2.28;0.50;;;;;;;17.50;49.21;99674.69;5050332;28;20020;-63
2022/09/27 06:34:24;;;;;;;0.85;0.20;;;;;;;17.49;50.02;99673.00;5050717;28;20074;-63
2022/09/27 06:36:50;;;;;;;2.08;0.20;;;;;;;17.51;49.99;99673.63;5066388;28;20335;-63
2022/09/27 06:39:15;;;;;;;0.30;0.10;;;;;;;17.49;49.63;99659.47;5067219;28;20068;-63
2022/09/27 06:41:40;;;;;;;1.95;0.30;;;;;;;17.50;49.32;99658.44;5051137;28;20032;-64
2022/09/27 06:44:06;;;;;;;1.35;0.40;;;;;;;17.47;48.95;99661.56;5046738;28;20029;-63
2022/09/27 06:46:31;;;;;;;1.23;0.40;;;;;;;17.49;50.42;99670.31;5067412;28;20041;-63
2022/09/27 06:48:57;;;;;;;2.30;0.38;;;;;;;17.49;50.48;99673.00;5064799;28;20029;-64
2022/09/27 06:51:22;;;;;;;0.82;0.30;;;;;;;17.51;49.20;99670.09;5065289;28;20052;-63
2022/09/27 06:53:47;;;;;;;1.40;0.40;;;;;;;17.49;49.81;99654.06;5032714;28;20028;-63
2022/09/27 06:56:13;;;;;;;0.45;0.20;;;;;;;17.55;49.52;99656.00;5085090;28;20029;-63
2022/09/27 07:01:27;;;;;;;0.98;0.20;;;;;;;17.62;49.25;99659.53;5082805;28;20047;-64
2022/09/27 07:03:52;;;;;;;6.43;0.43;;;;;;;17.65;49.34;99659.13;5064629;28;20028;-64
2022/09/27 07:06:21;;;;;;;0.43;0.20;;;;;;;17.74;49.49;99666.06;5064838;28;20185;-64
2022/09/27 07:08:53;;;;;;;2.85;0.35;;;;;;;17.82;49.66;99676.69;5048477;28;20078;-64
2022/09/27 07:11:19;;;;;;;1.70;0.28;;;;;;;17.88;48.73;99675.88;5066788;28;20495;-63
2022/09/27 07:13:45;;;;;;;0.98;0.40;;;;;;;17.96;49.11;99661.31;5066350;28;20040;-63
2022/09/27 07:16:12;;;;;;;2.42;0.60;;;;;;;18.08;48.88;99664.25;5069081;28;20218;-64
2022/09/27 07:18:38;;;;;;;1.15;0.32;;;;;;;18.12;49.23;99666.34;5068152;28;20028;-64
2022/09/27 07:21:03;;;;;;;2.00;0.50;;;;;;;18.12;48.93;99666.34;5064286;28;20052;-64
2022/09/27 07:23:29;;;;;;;1.85;0.40;;;;;;;18.14;49.60;99671.56;5065731;28;20089;-64
2022/09/27 07:25:54;;;;;;;1.75;0.47;;;;;;;18.14;49.05;99680.53;5049168;28;20028;-64
2022/09/27 07:28:20;;;;;;;1.40;0.65;;;;;;;18.19;49.43;99679.91;5050493;28;20024;-64
2022/09/27 07:30:45;;;;;;;1.08;0.73;;;;;;;18.20;48.80;99673.47;5071099;28;20459;-64
2022/09/27 07:33:11;;;;;;;1.50;0.63;;;;;;;18.26;49.38;99672.59;5069474;28;20481;-64
2022/09/27 07:35:40;;;;;;;0.52;0.52;;;;;;;18.34;49.15;99680.56;5069385;28;20049;-64
2022/09/27 07:38:07;;;;;;;3.78;0.70;;;;;;;18.38;48.59;99681.81;5068509;28;20025;-64
2022/09/27 07:40:35;;;;;;;1.65;1.00;;;;;;;18.41;48.90;99678.69;5069547;28;20048;-64
2022/09/27 07:43:00;;;;;;;2.15;0.70;;;;;;;18.39;48.69;99689.75;5051952;28;20032;-64
2022/09/27 07:45:25;;;;;;;2.05;0.68;;;;;;;18.39;48.70;99689.75;5067668;28;20482;-64
2022/09/27 07:47:51;;;;;;;1.88;0.63;;;;;;;18.42;48.74;99691.22;5052217;28;20033;-64
2022/09/27 07:50:17;;;;;;;2.35;0.98;;;;;;;18.43;48.90;99682.00;5069065;28;20064;-64
2022/09/27 07:52:44;;;;;;;3.35;0.80;;;;;;;18.48;48.52;99701.25;5067622;28;20040;-64
2022/09/27 07:55:11;;;;;;;1.65;0.68;;;;;;;18.47;48.55;99694.13;5050969;28;20025;-64
2022/09/27 07:57:37;;;;;;;0.98;0.70;;;;;;;18.61;48.87;99695.84;5032792;28;20029;-64
2022/09/27 08:00:05;;;;;;;2.55;0.70;;;;;;;18.77;49.02;99695.41;5064730;28;20032;-64
2022/09/27 08:02:31;;;;;;;0.98;0.70;;;;;;;18.82;48.79;99701.03;5065996;28;20032;-64
2022/09/27 08:05:00;;;;;;;1.55;0.93;;;;;;;18.87;48.64;99703.94;5064061;28;20032;-64
2022/09/27 08:07:26;;;;;;;0.80;0.70;;;;;;;18.83;48.95;99702.72;5065455;28;20033;-64
2022/09/27 08:09:51;;;;;;;3.05;0.82;;;;;;;18.79;49.23;99706.88;5066470;28;20041;-64
2022/09/27 08:12:17;;;;;;;3.08;0.90;;;;;;;18.82;48.96;99705.63;5048603;28;20048;-64
2022/09/27 08:14:42;;;;;;;4.95;0.75;;;;;;;18.76;48.87;99720.03;5047785;28;20025;-64
2022/09/27 08:17:11;;;;;;;3.67;0.57;;;;;;;18.82;48.53;99717.31;5047051;28;20092;-64
2022/09/27 08:19:37;;;;;;;3.08;0.88;;;;;;;18.91;48.19;99721.50;5064112;28;20074;-64
2022/09/27 08:22:03;;;;;;;0.70;0.70;;;;;;;19.33;47.86;99720.16;5047015;28;20135;-64
2022/09/27 08:24:28;;;;;;;4.13;1.23;;;;;;;19.68;47.23;99715.28;5063356;28;20029;-64
2022/09/27 08:26:54;;;;;;;1.35;0.85;;;;;;;19.76;47.90;99715.03;5062310;28;20040;-64
2022/09/27 08:29:19;;;;;;;1.30;0.85;;;;;;;19.80;48.37;99716.25;5063419;28;20044;-64
2022/09/27 08:31:44;;;;;;;0.95;0.85;;;;;;;19.85;48.22;99719.16;5045065;28;20060;-65
2022/09/27 08:34:10;;;;;;;0.70;0.70;;;;;;;19.84;47.71;99720.22;5062329;28;20028;-65
2022/09/27 08:36:36;;;;;;;11.68;1.02;;;;;;;19.86;47.64;99722.72;5062753;28;20017;-66
2022/09/27 08:39:03;;;;;;;1.38;0.90;;;;;;;19.81;48.46;99722.53;5062926;28;20112;-66
2022/09/27 08:41:51;;;;;;;0.52;0.52;;;;;;;19.80;47.80;99727.13;5063650;28;20044;-66
2022/09/27 08:44:35;;;;;;;3.83;0.50;;;;;;;19.71;48.07;99731.97;5063791;28;20056;-64
2022/09/27 08:47:09;;;;;;;10.82;1.05;;;;;;;19.60;47.80;99734.53;5064594;28;20129;-64
2022/09/27 08:49:48;;;;;;;1.08;0.70;;;;;;;19.53;47.96;99731.00;5063247;28;20029;-64
2022/09/27 08:52:40;;;;;;;3.92;1.27;;;;;;;19.45;48.51;99737.50;5063684;28;20017;-64
2022/09/27 08:55:16;;;;;;;1.70;0.50;;;;;;;19.40;47.75;99731.06;5063908;28;20474;-64
2022/09/27 08:57:42;;;;;;;2.15;0.75;;;;;;;19.30;48.08;99726.03;5047769;28;20032;-64
2022/09/27 09:00:11;;;;;;;1.13;0.82;;;;;;;19.23;47.33;99729.81;5064598;28;20033;-66
2022/09/27 09:02:36;;;;;;;1.52;0.90;;;;;;;19.19;48.18;99727.50;5064866;28;20471;-65
2022/09/27 09:05:07;;;;;;;2.83;0.85;;;;;;;19.17;47.76;99721.47;5064146;28;20082;-66
2022/09/27 09:07:52;;;;;;;1.73;0.80;;;;;;;19.17;48.40;99721.47;5063063;28;20036;-65
2022/09/27 09:13:29;;;;;;;2.50;0.95;;;;;;;19.10;48.32;99726.06;5064800;28;20031;-65
2022/09/27 09:16:22;;;;;;;1.80;0.88;;;;;;;19.18;47.80;99727.69;5068771;28;20024;-65
2022/09/27 09:19:03;;;;;;;;;;;;;;;19.17;48.21;99723.34;5070344;28;20021;-65
2022/09/27 09:21:47;;;;;;;2.40;0.93;;;;;;;19.15;47.90;99728.97;5067882;28;20000;-65
2022/09/27 09:24:30;;;;;;;3.35;0.98;;;;;;;19.13;47.81;99731.06;5067847;28;20032;-64
2022/09/27 09:27:02;;;;;;;;;;;;;;;19.11;47.90;99735.88;5067971;28;20125;-65
2022/09/27 09:30:05;;;;;;;4.82;0.77;;;;;;;19.10;48.00;99734.19;5068437;28;19909;-65
2022/09/27 09:32:45;;;;;;;3.55;0.65;;;;;;;19.08;47.68;99728.16;5072267;28;20013;-64
2022/09/27 09:35:15;;;;;;;1.92;0.90;;;;;;;19.11;48.00;99732.31;5070927;28;20025;-64
2022/09/27 09:38:02;;;;;;;1.08;0.98;;;;;;;19.13;48.09;99725.63;5069202;28;20084;-63
2022/09/27 09:40:54;;;;;;;0.70;0.70;;;;;;;19.21;47.56;99731.91;5068782;28;20052;-66
2022/09/27 09:43:49;;;;;;;1.10;1.00;;;;;;;19.26;47.73;99723.94;5068916;28;20046;-64
2022/09/27 09:46:19;;;;;;;1.63;1.52;;;;;;;19.34;47.90;99726.44;5064538;28;20508;-65
2022/09/27 09:49:01;;;;;;;3.83;1.52;;;;;;;19.39;47.68;99729.38;5066326;28;20032;-64
2022/09/27 09:51:35;;;;;;;2.92;1.02;;;;;;;19.37;47.39;99717.88;5049602;28;20017;-64
2022/09/27 09:54:07;;;;;;;4.32;1.40;;;;;;;19.36;47.84;99724.34;5066362;28;20367;-65
2022/09/27 09:56:40;;;;;;;1.80;1.15;;;;;;;19.31;48.03;99726.84;5066875;28;20025;-65
2022/09/27 09:59:14;;;;;;;5.40;1.08;;;;;;;19.30;48.08;99725.19;5067387;28;20020;-64
2022/09/27 10:01:42;;;;;;;1.00;0.90;;;;;;;19.33;47.46;99722.03;5069712;28;20021;-64
2022/09/27 10:04:19;;;;;;;0.65;0.60;;;;;;;19.39;48.20;99718.50;5068833;28;20028;-65
2022/09/27 10:06:45;;;;;;;1.75;1.27;;;;;;;19.47;47.40;99721.00;5068743;28;20092;-64
2022/09/27 10:09:13;;;;;;;2.20;1.30;;;;;;;19.51;47.54;99722.25;5049682;28;20401;-64
2022/09/27 10:11:40;;;;;;;3.40;0.73;;;;;;;19.64;46.84;99712.16;5066262;28;20022;-64
2022/09/27 10:14:11;;;;;;;2.67;0.80;;;;;;;19.69;47.17;99714.22;5066324;28;20023;-64
2022/09/27 10:16:36;;;;;;;1.52;0.95;;;;;;;19.83;47.21;99709.56;5066203;28;20021;-65
2022/09/27 10:19:04;;;;;;;4.32;1.05;;;;;;;19.90;47.24;99708.50;5049855;28;20036;-64
2022/09/27 10:21:30;;;;;;;1.42;1.17;;;;;;;20.07;46.97;99712.34;5066243;28;20120;-65
2022/09/27 10:24:09;;;;;;;2.75;0.98;;;;;;;20.28;46.25;99708.50;5066554;28;20024;-65
2022/09/27 10:26:36;;;;;;;1.42;0.98;;;;;;;20.37;46.49;99709.06;5067424;28;20025;-65
2022/09/27 10:29:13;;;;;;;2.33;1.02;;;;;;;20.42;46.58;99701.94;5067714;28;20028;-65
2022/09/27 10:31:44;;;;;;;4.85;1.02;;;;;;;20.53;46.69;99700.38;5048387;28;20022;-65
2022/09/27 10:34:23;;;;;;;0.68;0.65;;;;;;;20.57;46.36;99690.72;5048287;28;20037;-66
2022/09/27 10:37:21;;;;;;;2.17;0.70;;;;;;;20.71;46.39;99692.28;5026514;28;20033;-66
2022/09/27 10:39:49;;;;;;;1.70;1.17;;;;;;;20.92;45.60;99683.69;4992975;28;20041;-65
2022/09/27 10:42:36;;;;;;;1.25;0.55;;;;;;;21.18;45.98;99694.38;5040071;28;20030;-67
2022/09/27 10:45:26;;;;;;;4.30;0.63;;;;;;;21.15;45.71;99686.66;5038185;28;20033;-66
2022/09/27 10:47:52;;;;;;;1.45;0.57;;;;;;;21.22;45.56;99692.00;5039833;28;20036;-64
2022/09/27 10:50:21;;;;;;;1.73;0.63;;;;;;;21.18;45.40;99683.47;5036052;28;20029;-65
2022/09/27 10:52:47;;;;;;;0.93;0.60;;;;;;;21.11;45.97;99682.69;5035587;28;20033;-64
2022/09/27 10:55:23;;;;;;;3.72;0.50;;;;;;;20.99;45.98;99692.66;5020783;28;20059;-72
2022/09/27 10:57:51;;;;;;;1.88;0.60;;;;;;;20.89;45.19;99690.44;5036179;28;20104;-66
2022/09/27 11:00:34;;;;;;;4.95;0.93;;;;;;;20.79;45.57;99694.72;5036673;28;20025;-65
2022/09/27 11:03:01;;;;;;;;;;;;;;;20.76;45.82;99700.63;5036895;28;20021;-65
2022/09/27 11:05:32;;;;;;;0.50;0.50;;;;;;;20.84;45.16;99694.88;5055948;28;19909;-65
2022/09/27 11:08:01;;;;;;;0.85;0.60;;;;;;;20.96;45.78;99687.66;5039668;28;20076;-65
2022/09/27 11:10:33;;;;;;;1.42;0.40;;;;;;;20.97;44.94;99697.47;5038492;28;20041;-65
2022/09/27 11:13:16;;;;;;;3.55;0.55;;;;;;;20.88;45.72;99701.56;5039956;28;20033;-65
2022/09/27 11:15:52;;;;;;;0.50;0.50;;;;;;;20.89;45.79;99703.22;5044157;28;20399;-64
2022/09/27 11:18:38;;;;;;;1.35;0.40;;;;;;;20.85;45.75;99700.09;5031136;28;20093;-64
2022/09/27 11:21:15;;;;;;;0.80;0.52;;;;;;;20.75;45.43;99704.38;5031337;28;20073;-65
2022/09/27 11:24:06;;;;;;;0.75;0.60;;;;;;;20.65;45.70;99718.50;5050560;28;20056;-64
2022/09/27 11:27:09;;;;;;;2.85;0.65;;;;;;;20.59;45.45;99713.94;5050267;28;20021;-64
2022/09/27 11:29:46;;;;;;;0.60;0.60;;;;;;;20.55;45.24;99717.31;5050523;28;20028;-64
2022/09/27 11:32:35;;;;;;;2.10;0.20;;;;;;;20.44;46.12;99718.84;5051865;28;20077;-64
2022/09/27 11:35:10;;;;;;;2.30;0.40;;;;;;;20.32;45.91;99715.19;5049972;28;20075;-65
2022/09/27 11:37:58;;;;;;;2.17;0.40;;;;;;;20.18;45.90;99714.38;5051486;28;20032;-64
2022/09/27 11:40:29;;;;;;;2.20;0.45;;;;;;;20.05;46.15;99724.50;5052248;28;20030;-66
2022/09/27 11:43:20;;;;;;;1.48;0.30;;;;;;;19.89;46.06;99723.13;5055261;28;20100;-64
2022/09/27 11:45:49;;;;;;;0.20;0.20;;;;;;;19.73;45.96;99732.63;5037460;28;20025;-66
2022/09/27 11:48:44;;;;;;;0.75;0.28;;;;;;;19.64;46.35;99730.34;5035475;28;20116;-65
2022/09/27 11:51:17;;;;;;;1.17;0.28;;;;;;;19.58;46.03;99728.47;5053996;28;20082;-66
2022/09/27 11:54:02;;;;;;;0.20;0.20;;;;;;;19.53;46.63;99725.56;5054481;28;20021;-64
2022/09/27 11:57:03;;;;;;;0.20;0.20;;;;;;;19.51;46.19;99727.69;5054228;28;20036;-64
2022/09/27 12:00:04;;;;;;;0.80;0.20;;;;;;;19.44;46.26;99727.69;5054652;28;20077;-64